Terminal Aerodrome Forecast
Issued by NWS

Home | Current Version | Previous Version | Text Only | Print | Product List | Glossary On
Versions: 1 2 3 4 5 6 7 8 9 10 11 12
359
FTUS43 KDTX 062332
TAFDET
TAF
KDET 062332Z 0700/0724 14005KT P6SM SKC
     FM070600 VRB04KT P6SM SCT150
     FM071000 19006KT P6SM -SHRA SCT050 BKN100
     FM071500 26010KT P6SM SHRA BKN045 OVC060 PROB30 0715/0718 2SM
      TSRA OVC025CB
     FM071800 31015G22KT P6SM BKN028=

USA.gov is the U.S. government's official web portal to all federal, state and local government web resources and services.